sensor_id;sensor_type;location;lat;lon;timestamp;P1;durP1;ratioP1;P2;durP2;ratioP2
62121;SDS011;48108;47.532;19.084;2023-03-01T05:01:28;20.67;;;10.37;;
62121;SDS011;48108;47.532;19.084;2023-03-01T05:04:31;17.30;;;9.40;;
62121;SDS011;48108;47.532;19.084;2023-03-01T05:07:33;18.08;;;9.80;;
62121;SDS011;48108;47.532;19.084;2023-03-01T05:10:39;20.85;;;9.68;;
62121;SDS011;48108;47.532;19.084;2023-03-01T05:13:43;18.17;;;10.32;;
62121;SDS011;48108;47.532;19.084;2023-03-01T05:16:46;21.42;;;10.15;;
62121;SDS011;48108;47.532;19.084;2023-03-01T05:19:48;17.02;;;9.95;;
62121;SDS011;48108;47.532;19.084;2023-03-01T05:22:52;17.35;;;9.98;;
62121;SDS011;48108;47.532;19.084;2023-03-01T05:25:58;17.98;;;9.38;;
62121;SDS011;48108;47.532;19.084;2023-03-01T05:29:02;17.52;;;9.77;;
62121;SDS011;48108;47.532;19.084;2023-03-01T05:32:04;17.98;;;9.80;;
62121;SDS011;48108;47.532;19.084;2023-03-01T05:35:07;18.12;;;9.88;;
62121;SDS011;48108;47.532;19.084;2023-03-01T05:38:11;19.65;;;9.65;;
62121;SDS011;48108;47.532;19.084;2023-03-01T05:41:18;19.37;;;9.02;;
62121;SDS011;48108;47.532;19.084;2023-03-01T05:44:21;17.85;;;10.18;;
62121;SDS011;48108;47.532;19.084;2023-03-01T05:47:24;18.77;;;9.90;;
62121;SDS011;48108;47.532;19.084;2023-03-01T05:50:29;19.75;;;9.15;;
62121;SDS011;48108;47.532;19.084;2023-03-01T05:53:34;22.42;;;10.77;;
62121;SDS011;48108;47.532;19.084;2023-03-01T05:56:37;20.55;;;10.77;;
62121;SDS011;48108;47.532;19.084;2023-03-01T05:59:41;19.90;;;10.35;;
62121;SDS011;48108;47.532;19.084;2023-03-01T06:02:43;17.27;;;9.18;;
62121;SDS011;48108;47.532;19.084;2023-03-01T06:05:47;19.95;;;9.88;;
62121;SDS011;48108;47.532;19.084;2023-03-01T06:08:50;18.33;;;9.40;;
62121;SDS011;48108;47.532;19.084;2023-03-01T06:11:53;21.67;;;10.85;;
62121;SDS011;48108;47.532;19.084;2023-03-01T06:14:56;24.12;;;12.13;;
62121;SDS011;48108;47.532;19.084;2023-03-01T06:17:59;25.23;;;12.80;;
62121;SDS011;48108;47.532;19.084;2023-03-01T06:21:02;23.38;;;12.02;;
62121;SDS011;48108;47.532;19.084;2023-03-01T06:24:06;19.50;;;10.18;;
62121;SDS011;48108;47.532;19.084;2023-03-01T06:27:09;18.55;;;9.35;;
62121;SDS011;48108;47.532;19.084;2023-03-01T06:30:13;17.00;;;9.10;;
62121;SDS011;48108;47.532;19.084;2023-03-01T06:33:20;17.25;;;8.65;;
62121;SDS011;48108;47.532;19.084;2023-03-01T06:36:24;17.42;;;9.50;;
62121;SDS011;48108;47.532;19.084;2023-03-01T06:39:27;17.12;;;9.27;;
62121;SDS011;48108;47.532;19.084;2023-03-01T06:42:30;17.35;;;9.10;;
62121;SDS011;48108;47.532;19.084;2023-03-01T06:45:33;16.27;;;9.85;;
62121;SDS011;48108;47.532;19.084;2023-03-01T06:48:36;15.95;;;8.95;;
62121;SDS011;48108;47.532;19.084;2023-03-01T06:51:39;19.23;;;9.18;;
62121;SDS011;48108;47.532;19.084;2023-03-01T06:54:42;17.05;;;9.38;;
62121;SDS011;48108;47.532;19.084;2023-03-01T06:57:45;16.23;;;9.07;;
62121;SDS011;48108;47.532;19.084;2023-03-01T07:00:50;16.50;;;9.40;;
62121;SDS011;48108;47.532;19.084;2023-03-01T07:03:53;18.27;;;8.90;;
62121;SDS011;48108;47.532;19.084;2023-03-01T07:06:56;17.52;;;9.85;;
62121;SDS011;48108;47.532;19.084;2023-03-01T07:09:59;19.87;;;9.63;;
62121;SDS011;48108;47.532;19.084;2023-03-01T07:13:03;18.73;;;9.20;;
62121;SDS011;48108;47.532;19.084;2023-03-01T07:16:05;17.60;;;10.73;;
62121;SDS011;48108;47.532;19.084;2023-03-01T07:19:09;20.83;;;9.63;;
62121;SDS011;48108;47.532;19.084;2023-03-01T07:22:12;17.98;;;10.27;;
62121;SDS011;48108;47.532;19.084;2023-03-01T07:25:15;19.90;;;10.52;;
62121;SDS011;48108;47.532;19.084;2023-03-01T07:28:17;23.10;;;10.15;;
62121;SDS011;48108;47.532;19.084;2023-03-01T07:31:20;17.70;;;9.30;;
62121;SDS011;48108;47.532;19.084;2023-03-01T07:34:23;18.75;;;10.45;;
62121;SDS011;48108;47.532;19.084;2023-03-01T07:37:26;19.55;;;9.85;;
62121;SDS011;48108;47.532;19.084;2023-03-01T07:40:29;17.17;;;10.70;;
62121;SDS011;48108;47.532;19.084;2023-03-01T07:43:32;17.60;;;10.30;;
62121;SDS011;48108;47.532;19.084;2023-03-01T07:46:35;19.35;;;10.48;;
62121;SDS011;48108;47.532;19.084;2023-03-01T07:49:38;19.45;;;10.13;;
62121;SDS011;48108;47.532;19.084;2023-03-01T07:52:41;19.10;;;10.23;;
62121;SDS011;48108;47.532;19.084;2023-03-01T07:55:44;19.02;;;10.93;;
62121;SDS011;48108;47.532;19.084;2023-03-01T07:58:47;18.65;;;10.40;;
62121;SDS011;48108;47.532;19.084;2023-03-01T08:01:52;20.62;;;10.05;;
62121;SDS011;48108;47.532;19.084;2023-03-01T08:04:55;17.65;;;10.43;;
62121;SDS011;48108;47.532;19.084;2023-03-01T08:07:58;18.80;;;10.35;;
62121;SDS011;48108;47.532;19.084;2023-03-01T08:11:02;17.70;;;10.23;;
62121;SDS011;48108;47.532;19.084;2023-03-01T08:14:06;21.75;;;10.70;;
62121;SDS011;48108;47.532;19.084;2023-03-01T08:17:09;17.92;;;10.18;;
62121;SDS011;48108;47.532;19.084;2023-03-01T08:20:13;21.45;;;10.02;;
62121;SDS011;48108;47.532;19.084;2023-03-01T08:23:16;18.23;;;10.45;;
62121;SDS011;48108;47.532;19.084;2023-03-01T08:26:19;17.27;;;9.23;;
62121;SDS011;48108;47.532;19.084;2023-03-01T08:29:24;15.80;;;10.10;;
62121;SDS011;48108;47.532;19.084;2023-03-01T08:32:32;18.15;;;10.63;;
62121;SDS011;48108;47.532;19.084;2023-03-01T08:35:38;22.90;;;10.65;;
62121;SDS011;48108;47.532;19.084;2023-03-01T08:38:40;14.02;;;9.27;;
62121;SDS011;48108;47.532;19.084;2023-03-01T08:41:43;14.90;;;8.95;;
62121;SDS011;48108;47.532;19.084;2023-03-01T08:44:49;13.02;;;8.05;;
62121;SDS011;48108;47.532;19.084;2023-03-01T08:47:52;16.58;;;8.73;;
62121;SDS011;48108;47.532;19.084;2023-03-01T08:50:55;15.35;;;8.88;;
62121;SDS011;48108;47.532;19.084;2023-03-01T08:53:58;16.15;;;9.05;;
62121;SDS011;48108;47.532;19.084;2023-03-01T08:57:02;15.52;;;8.90;;
62121;SDS011;48108;47.532;19.084;2023-03-01T09:00:05;15.50;;;9.20;;
62121;SDS011;48108;47.532;19.084;2023-03-01T09:03:11;17.25;;;9.50;;
62121;SDS011;48108;47.532;19.084;2023-03-01T09:06:15;16.10;;;9.18;;
62121;SDS011;48108;47.532;19.084;2023-03-01T09:09:18;16.37;;;9.40;;
62121;SDS011;48108;47.532;19.084;2023-03-01T09:12:21;16.27;;;9.63;;
62121;SDS011;48108;47.532;19.084;2023-03-01T09:15:24;15.40;;;9.25;;
62121;SDS011;48108;47.532;19.084;2023-03-01T09:18:27;17.15;;;9.73;;
62121;SDS011;48108;47.532;19.084;2023-03-01T09:21:30;14.73;;;9.15;;
62121;SDS011;48108;47.532;19.084;2023-03-01T09:24:42;17.90;;;10.30;;
62121;SDS011;48108;47.532;19.084;2023-03-01T09:27:45;15.90;;;9.30;;
62121;SDS011;48108;47.532;19.084;2023-03-01T09:30:49;16.00;;;8.77;;
62121;SDS011;48108;47.532;19.084;2023-03-01T09:33:53;18.05;;;9.68;;
62121;SDS011;48108;47.532;19.084;2023-03-01T09:36:57;16.58;;;9.70;;
62121;SDS011;48108;47.532;19.084;2023-03-01T09:40:01;14.90;;;9.43;;
62121;SDS011;48108;47.532;19.084;2023-03-01T09:43:17;15.90;;;9.52;;
62121;SDS011;48108;47.532;19.084;2023-03-01T09:46:25;18.17;;;10.10;;
62121;SDS011;48108;47.532;19.084;2023-03-01T09:49:39;14.93;;;9.52;;
62121;SDS011;48108;47.532;19.084;2023-03-01T09:53:01;18.30;;;9.60;;
62121;SDS011;48108;47.532;19.084;2023-03-01T09:56:13;21.50;;;9.77;;
62121;SDS011;48108;47.532;19.084;2023-03-01T10:03:11;17.23;;;9.73;;
62121;SDS011;48108;47.532;19.084;2023-03-01T10:06:15;15.80;;;8.82;;
62121;SDS011;48108;47.532;19.084;2023-03-01T10:09:40;16.55;;;9.30;;
62121;SDS011;48108;47.532;19.084;2023-03-01T10:12:45;15.80;;;9.32;;
62121;SDS011;48108;47.532;19.084;2023-03-01T10:15:50;16.50;;;9.70;;
62121;SDS011;48108;47.532;19.084;2023-03-01T10:18:59;17.95;;;9.90;;
62121;SDS011;48108;47.532;19.084;2023-03-01T10:22:07;19.17;;;9.55;;
62121;SDS011;48108;47.532;19.084;2023-03-01T10:25:30;16.62;;;10.13;;
62121;SDS011;48108;47.532;19.084;2023-03-01T10:32:10;18.52;;;9.90;;
62121;SDS011;48108;47.532;19.084;2023-03-01T10:35:23;18.90;;;10.02;;
62121;SDS011;48108;47.532;19.084;2023-03-01T10:38:33;16.48;;;8.85;;
62121;SDS011;48108;47.532;19.084;2023-03-01T10:41:54;13.35;;;7.97;;
62121;SDS011;48108;47.532;19.084;2023-03-01T10:45:43;18.77;;;9.13;;
62121;SDS011;48108;47.532;19.084;2023-03-01T10:48:32;13.70;;;8.20;;
62121;SDS011;48108;47.532;19.084;2023-03-01T10:51:39;12.65;;;7.95;;
62121;SDS011;48108;47.532;19.084;2023-03-01T10:54:43;16.10;;;8.63;;
62121;SDS011;48108;47.532;19.084;2023-03-01T10:58:17;18.55;;;10.13;;
62121;SDS011;48108;47.532;19.084;2023-03-01T11:01:29;18.23;;;10.07;;
62121;SDS011;48108;47.532;19.084;2023-03-01T11:04:36;14.30;;;8.38;;
62121;SDS011;48108;47.532;19.084;2023-03-01T11:07:49;15.75;;;8.77;;
62121;SDS011;48108;47.532;19.084;2023-03-01T11:11:06;14.63;;;9.20;;
62121;SDS011;48108;47.532;19.084;2023-03-01T11:14:27;15.88;;;9.07;;
62121;SDS011;48108;47.532;19.084;2023-03-01T11:17:37;16.42;;;9.70;;
62121;SDS011;48108;47.532;19.084;2023-03-01T11:20:58;17.58;;;9.68;;
62121;SDS011;48108;47.532;19.084;2023-03-01T11:24:03;16.02;;;9.32;;
62121;SDS011;48108;47.532;19.084;2023-03-01T11:27:24;17.30;;;9.10;;
62121;SDS011;48108;47.532;19.084;2023-03-01T11:34:14;14.15;;;8.73;;
62121;SDS011;48108;47.532;19.084;2023-03-01T11:37:39;17.45;;;9.50;;
62121;SDS011;48108;47.532;19.084;2023-03-01T11:40:49;15.70;;;9.40;;
62121;SDS011;48108;47.532;19.084;2023-03-01T11:44:14;11.50;;;8.18;;
62121;SDS011;48108;47.532;19.084;2023-03-01T11:47:29;13.90;;;7.50;;
62121;SDS011;48108;47.532;19.084;2023-03-01T11:50:48;12.80;;;7.57;;
62121;SDS011;48108;47.532;19.084;2023-03-01T12:14:44;11.57;;;7.35;;
62121;SDS011;48108;47.532;19.084;2023-03-01T12:39:15;9.63;;;6.60;;
62121;SDS011;48108;47.532;19.084;2023-03-01T12:46:07;10.80;;;6.47;;
62121;SDS011;48108;47.532;19.084;2023-03-01T12:49:17;9.85;;;6.22;;
62121;SDS011;48108;47.532;19.084;2023-03-01T12:52:46;8.07;;;6.05;;
62121;SDS011;48108;47.532;19.084;2023-03-01T12:55:54;9.50;;;6.37;;
62121;SDS011;48108;47.532;19.084;2023-03-01T12:59:18;7.68;;;6.00;;
62121;SDS011;48108;47.532;19.084;2023-03-01T13:02:41;7.93;;;5.87;;
62121;SDS011;48108;47.532;19.084;2023-03-01T13:12:41;6.03;;;4.70;;
62121;SDS011;48108;47.532;19.084;2023-03-01T13:19:26;8.55;;;4.10;;
62121;SDS011;48108;47.532;19.084;2023-03-01T13:22:33;16.33;;;5.10;;
62121;SDS011;48108;47.532;19.084;2023-03-01T13:26:28;6.47;;;4.20;;
62121;SDS011;48108;47.532;19.084;2023-03-01T13:29:26;5.47;;;4.00;;
62121;SDS011;48108;47.532;19.084;2023-03-01T13:32:32;6.90;;;4.80;;
62121;SDS011;48108;47.532;19.084;2023-03-01T13:35:48;6.90;;;4.87;;
62121;SDS011;48108;47.532;19.084;2023-03-01T13:38:56;6.90;;;4.15;;
62121;SDS011;48108;47.532;19.084;2023-03-01T13:42:00;7.22;;;4.57;;
62121;SDS011;48108;47.532;19.084;2023-03-01T13:45:32;7.80;;;5.03;;
62121;SDS011;48108;47.532;19.084;2023-03-01T13:48:55;6.78;;;4.60;;
62121;SDS011;48108;47.532;19.084;2023-03-01T13:51:59;5.97;;;4.22;;
62121;SDS011;48108;47.532;19.084;2023-03-01T13:55:06;9.52;;;4.70;;
62121;SDS011;48108;47.532;19.084;2023-03-01T13:58:23;7.05;;;4.18;;
62121;SDS011;48108;47.532;19.084;2023-03-01T14:01:32;6.32;;;4.10;;
62121;SDS011;48108;47.532;19.084;2023-03-01T14:04:38;7.85;;;4.25;;
62121;SDS011;48108;47.532;19.084;2023-03-01T14:07:41;7.57;;;4.00;;
62121;SDS011;48108;47.532;19.084;2023-03-01T14:14:18;6.78;;;4.40;;
62121;SDS011;48108;47.532;19.084;2023-03-01T14:17:49;6.78;;;4.25;;
62121;SDS011;48108;47.532;19.084;2023-03-01T14:20:53;5.35;;;4.03;;
62121;SDS011;48108;47.532;19.084;2023-03-01T14:23:56;7.47;;;3.92;;
62121;SDS011;48108;47.532;19.084;2023-03-01T14:27:01;9.40;;;4.10;;
62121;SDS011;48108;47.532;19.084;2023-03-01T14:30:14;5.85;;;4.07;;
62121;SDS011;48108;47.532;19.084;2023-03-01T14:33:26;7.32;;;3.80;;
62121;SDS011;48108;47.532;19.084;2023-03-01T14:36:32;7.47;;;4.30;;
62121;SDS011;48108;47.532;19.084;2023-03-01T14:39:36;6.60;;;3.80;;
62121;SDS011;48108;47.532;19.084;2023-03-01T14:42:39;8.38;;;3.95;;
62121;SDS011;48108;47.532;19.084;2023-03-01T14:45:46;6.65;;;3.70;;
62121;SDS011;48108;47.532;19.084;2023-03-01T14:48:51;6.62;;;4.15;;
62121;SDS011;48108;47.532;19.084;2023-03-01T14:52:00;5.43;;;3.42;;
62121;SDS011;48108;47.532;19.084;2023-03-01T14:55:12;6.87;;;4.12;;
62121;SDS011;48108;47.532;19.084;2023-03-01T14:58:22;6.20;;;4.00;;
62121;SDS011;48108;47.532;19.084;2023-03-01T15:01:27;4.70;;;3.78;;
62121;SDS011;48108;47.532;19.084;2023-03-01T15:04:30;7.70;;;3.92;;
62121;SDS011;48108;47.532;19.084;2023-03-01T15:07:36;7.93;;;3.95;;
62121;SDS011;48108;47.532;19.084;2023-03-01T15:10:54;7.90;;;3.53;;
62121;SDS011;48108;47.532;19.084;2023-03-01T15:18:13;6.65;;;3.60;;
62121;SDS011;48108;47.532;19.084;2023-03-01T15:21:35;6.07;;;3.53;;
62121;SDS011;48108;47.532;19.084;2023-03-01T15:24:40;8.13;;;3.90;;
62121;SDS011;48108;47.532;19.084;2023-03-01T15:27:47;10.25;;;4.00;;
62121;SDS011;48108;47.532;19.084;2023-03-01T15:30:52;5.70;;;4.28;;
62121;SDS011;48108;47.532;19.084;2023-03-01T15:34:19;9.70;;;3.85;;
62121;SDS011;48108;47.532;19.084;2023-03-01T15:37:38;5.90;;;4.07;;
62121;SDS011;48108;47.532;19.084;2023-03-01T15:40:51;7.53;;;3.55;;
62121;SDS011;48108;47.532;19.084;2023-03-01T15:43:55;6.53;;;3.45;;
62121;SDS011;48108;47.532;19.084;2023-03-01T15:46:58;11.32;;;3.72;;
62121;SDS011;48108;47.532;19.084;2023-03-01T15:50:02;7.78;;;4.00;;
62121;SDS011;48108;47.532;19.084;2023-03-01T15:53:11;5.07;;;3.50;;
62121;SDS011;48108;47.532;19.084;2023-03-01T15:56:18;6.78;;;3.35;;
62121;SDS011;48108;47.532;19.084;2023-03-01T15:59:23;5.35;;;4.00;;
62121;SDS011;48108;47.532;19.084;2023-03-01T16:02:26;8.68;;;3.78;;
62121;SDS011;48108;47.532;19.084;2023-03-01T16:05:30;8.70;;;3.72;;
62121;SDS011;48108;47.532;19.084;2023-03-01T16:08:34;7.45;;;4.28;;
62121;SDS011;48108;47.532;19.084;2023-03-01T16:11:37;7.15;;;3.97;;
62121;SDS011;48108;47.532;19.084;2023-03-01T16:14:42;7.75;;;3.80;;
62121;SDS011;48108;47.532;19.084;2023-03-01T16:17:45;7.10;;;3.90;;
62121;SDS011;48108;47.532;19.084;2023-03-01T16:20:53;8.70;;;4.20;;
62121;SDS011;48108;47.532;19.084;2023-03-01T16:23:56;8.75;;;4.10;;
62121;SDS011;48108;47.532;19.084;2023-03-01T16:26:59;9.80;;;4.03;;
62121;SDS011;48108;47.532;19.084;2023-03-01T16:30:02;9.13;;;4.30;;
62121;SDS011;48108;47.532;19.084;2023-03-01T16:33:06;8.65;;;4.35;;
62121;SDS011;48108;47.532;19.084;2023-03-01T16:36:27;7.87;;;4.28;;
62121;SDS011;48108;47.532;19.084;2023-03-01T16:39:33;8.50;;;4.18;;
62121;SDS011;48108;47.532;19.084;2023-03-01T16:42:36;9.15;;;4.57;;
62121;SDS011;48108;47.532;19.084;2023-03-01T16:45:41;6.32;;;4.40;;
62121;SDS011;48108;47.532;19.084;2023-03-01T16:48:47;10.50;;;4.62;;
62121;SDS011;48108;47.532;19.084;2023-03-01T16:51:52;7.53;;;4.50;;
62121;SDS011;48108;47.532;19.084;2023-03-01T16:54:56;7.57;;;4.25;;
62121;SDS011;48108;47.532;19.084;2023-03-01T16:57:59;7.80;;;4.37;;
62121;SDS011;48108;47.532;19.084;2023-03-01T17:01:08;11.00;;;4.65;;
